Time;durP1;ratioP1;P1;durP2;ratioP2;P2;SDS_P1;SDS_P2;PMS_P1;PMS_P2;Temp;Humidity;BMP_temperature;BMP_pressure;BME280_temperature;BME280_humidity;BME280_pressure;Samples;Min_cycle;Max_cycle;Signal;HPM_P1;HPM_P2
2022/01/31 00:01:00;;;;;;;18.58;5.05;;;;;;;5.43;84.58;100778.22;8324030;28;20068;-64
2022/01/31 00:05:02;;;;;;;18.40;6.47;;;;;;;5.43;84.87;100756.78;8325803;28;20764;-65
2022/01/31 00:09:03;;;;;;;25.13;5.00;;;;;;;5.58;83.88;100729.78;8305906;28;20038;-65
2022/01/31 00:13:07;;;;;;;18.85;3.90;;;;;;;5.63;83.77;100724.09;8300946;28;20504;-64
2022/01/31 00:17:09;;;;;;;14.80;3.55;;;;;;;5.83;82.84;100710.25;8322190;28;20606;-64
2022/01/31 00:21:10;;;;;;;10.77;3.17;;;;;;;6.03;81.78;100692.75;8317893;28;20383;-64
2022/01/31 00:25:10;;;;;;;15.43;3.42;;;;;;;6.12;81.65;100674.16;8314792;28;20034;-64
2022/01/31 00:29:10;;;;;;;16.60;3.00;;;;;;;6.24;80.89;100643.75;8312844;28;20044;-64
2022/01/31 00:33:12;;;;;;;15.60;3.17;;;;;;;6.21;81.66;100643.97;8309149;28;20144;-64
2022/01/31 00:37:13;;;;;;;17.17;3.03;;;;;;;6.25;81.73;100624.00;8300259;28;20135;-64
2022/01/31 00:41:13;;;;;;;16.70;3.38;;;;;;;6.28;82.08;100607.66;8311667;28;20109;-64
2022/01/31 00:45:22;;;;;;;19.60;3.00;;;;;;;6.30;81.71;100611.09;8317599;28;20050;-64
2022/01/31 00:49:35;;;;;;;20.80;3.80;;;;;;;6.37;81.79;100596.25;8317946;28;20507;-64
2022/01/31 00:53:36;;;;;;;12.90;3.25;;;;;;;6.43;81.50;100585.06;8317010;28;20234;-64
2022/01/31 00:57:37;;;;;;;14.98;2.83;;;;;;;6.57;81.59;100576.88;8320955;28;20033;-64
2022/01/31 01:01:37;;;;;;;13.90;3.50;;;;;;;6.60;81.31;100571.25;8317542;28;20038;-64
2022/01/31 01:05:38;;;;;;;12.27;3.53;;;;;;;6.70;81.02;100557.97;8319571;28;20069;-64
2022/01/31 01:09:38;;;;;;;12.43;3.47;;;;;;;6.78;80.48;100543.03;8314531;28;20496;-64
2022/01/31 01:13:39;;;;;;;9.27;2.85;;;;;;;6.75;81.50;100532.50;8313729;28;20381;-64
2022/01/31 01:17:39;;;;;;;20.45;3.05;;;;;;;6.82;80.43;100514.94;8314722;28;20063;-64
2022/01/31 01:21:40;;;;;;;23.65;3.17;;;;;;;6.91;80.52;100506.19;8316596;28;20056;-64
2022/01/31 01:25:40;;;;;;;18.98;2.80;;;;;;;6.97;79.87;100478.84;8297496;28;20045;-64
2022/01/31 01:29:40;;;;;;;22.42;3.72;;;;;;;6.97;80.27;100456.47;8292309;28;20665;-64
2022/01/31 01:33:41;;;;;;;16.23;2.60;;;;;;;6.89;81.08;100449.00;8292369;28;20045;-64
2022/01/31 01:37:42;;;;;;;16.55;3.85;;;;;;;6.94;80.53;100411.88;8307656;28;20571;-64
2022/01/31 01:41:43;;;;;;;19.08;2.83;;;;;;;6.94;80.08;100382.31;8317074;28;20540;-64
2022/01/31 01:45:44;;;;;;;13.43;2.05;;;;;;;7.04;78.44;100372.56;8310570;28;20072;-64
2022/01/31 01:49:45;;;;;;;8.43;2.00;;;;;;;7.01;78.89;100359.34;8317947;28;20053;-64
2022/01/31 01:53:46;;;;;;;10.90;2.17;;;;;;;7.04;78.82;100318.81;8317175;28;20049;-64
2022/01/31 01:57:47;;;;;;;16.38;2.40;;;;;;;7.06;78.19;100297.19;8318139;28;20026;-64
2022/01/31 02:01:47;;;;;;;17.67;2.80;;;;;;;7.19;77.38;100306.81;8320336;28;20091;-64
2022/01/31 02:05:48;;;;;;;9.18;1.95;;;;;;;7.27;76.90;100292.75;8314545;28;20487;-64
2022/01/31 02:09:54;;;;;;;8.13;2.13;;;;;;;7.27;77.03;100272.09;8312223;28;20037;-64
2022/01/31 02:13:54;;;;;;;10.63;1.83;;;;;;;7.36;77.45;100246.28;8299741;28;20224;-64
2022/01/31 02:17:55;;;;;;;12.45;2.33;;;;;;;7.33;77.96;100233.09;8292487;28;20038;-64
2022/01/31 02:21:55;;;;;;;8.88;1.67;;;;;;;7.32;78.20;100213.41;8307469;28;20525;-64
2022/01/31 02:26:02;;;;;;;9.65;2.00;;;;;;;7.36;78.83;100200.56;8313898;28;20095;-64
2022/01/31 02:30:06;;;;;;;8.55;2.47;;;;;;;7.35;79.61;100175.50;8314902;28;20206;-64
2022/01/31 02:34:06;;;;;;;;;;;;;;;7.35;80.70;100162.06;8312902;28;20033;-64
2022/01/31 02:38:07;;;;;;;8.67;2.23;;;;;;;7.22;83.63;100147.94;8313389;28;19955;-64
2022/01/31 02:42:07;;;;;;;15.85;3.35;;;;;;;7.05;85.80;100121.63;8315501;28;20431;-64
2022/01/31 02:46:08;;;;;;;22.13;2.67;;;;;;;6.89;88.61;100123.88;8316556;28;20044;-64
2022/01/31 02:50:12;;;;;;;18.40;2.80;;;;;;;6.75;91.21;100108.06;8322532;28;20063;-64
2022/01/31 02:54:13;;;;;;;15.15;2.50;;;;;;;6.68;92.61;100106.84;8311165;28;20353;-64
2022/01/31 02:58:15;;;;;;;15.18;2.97;;;;;;;6.54;94.57;100076.75;8321126;28;20040;-64
2022/01/31 03:02:15;;;;;;;14.18;3.38;;;;;;;6.43;96.33;100066.03;8319303;28;20073;-64
2022/01/31 03:06:16;;;;;;;17.42;3.42;;;;;;;6.30;98.64;100074.22;8307953;28;20048;-64
2022/01/31 03:10:16;;;;;;;11.30;2.20;;;;;;;6.23;98.72;100054.25;8289794;28;20545;-64
2022/01/31 03:14:18;;;;;;;8.30;2.35;;;;;;;6.14;99.64;100052.31;8311097;28;20037;-64
2022/01/31 03:18:19;;;;;;;11.32;2.72;;;;;;;6.00;100.00;100033.78;8322838;28;20413;-64
2022/01/31 03:22:21;;;;;;;10.85;2.28;;;;;;;5.95;100.00;100022.56;8320948;28;20083;-64
2022/01/31 03:26:21;;;;;;;12.13;2.10;;;;;;;5.91;100.00;100007.69;8303943;28;20044;-64
2022/01/31 03:30:23;;;;;;;8.50;3.33;;;;;;;5.89;100.00;100006.97;8318077;28;20489;-63
2022/01/31 03:34:25;;;;;;;5.40;1.77;;;;;;;5.89;100.00;99988.19;8320942;28;20128;-63
2022/01/31 03:38:26;;;;;;;9.85;1.88;;;;;;;5.88;100.00;99981.09;8319734;28;20061;-63
2022/01/31 03:42:26;;;;;;;10.95;2.05;;;;;;;5.90;100.00;99971.97;8320314;28;20072;-63
2022/01/31 03:46:27;;;;;;;8.80;2.30;;;;;;;5.93;100.00;99974.41;8321381;28;20112;-63
2022/01/31 03:50:28;;;;;;;8.00;1.88;;;;;;;5.96;100.00;99963.44;8321790;28;20135;-63
2022/01/31 03:54:28;;;;;;;5.70;1.80;;;;;;;5.97;100.00;99961.59;8308479;28;20041;-63
2022/01/31 03:58:28;;;;;;;5.85;1.85;;;;;;;5.97;100.00;99948.16;8306221;28;20069;-63
2022/01/31 04:02:29;;;;;;;3.40;1.67;;;;;;;6.00;100.00;99947.91;8292595;28;20049;-63
2022/01/31 04:06:29;;;;;;;7.18;1.80;;;;;;;5.99;100.00;99946.22;8288480;28;20046;-63
2022/01/31 04:10:30;;;;;;;4.68;1.98;;;;;;;5.94;100.00;99932.31;8290338;28;20045;-63
2022/01/31 04:14:30;;;;;;;5.95;2.20;;;;;;;5.90;100.00;99925.53;8316872;28;20322;-63
2022/01/31 04:18:30;;;;;;;8.98;2.13;;;;;;;5.89;100.00;99931.88;8324440;28;20045;-63
2022/01/31 04:22:34;;;;;;;7.82;2.13;;;;;;;5.90;100.00;99925.53;8322601;28;20041;-63
2022/01/31 04:26:44;;;;;;;4.25;2.50;;;;;;;5.94;100.00;99926.97;8324180;28;20399;-63
2022/01/31 04:30:53;;;;;;;7.15;2.40;;;;;;;6.06;100.00;99925.97;8323197;28;20374;-63
2022/01/31 04:34:53;;;;;;;7.47;2.50;;;;;;;6.26;100.00;99925.16;8318287;28;20037;-63
2022/01/31 04:38:54;;;;;;;11.85;2.63;;;;;;;6.61;100.00;99931.09;8318987;28;20053;-63
2022/01/31 04:42:54;;;;;;;10.00;3.25;;;;;;;6.78;100.00;99925.16;8312919;28;20548;-63
2022/01/31 04:46:55;;;;;;;7.25;2.60;;;;;;;6.88;100.00;99915.31;8309812;28;20034;-63
2022/01/31 04:50:56;;;;;;;9.40;2.83;;;;;;;6.95;100.00;99921.03;8304334;28;20117;-63
2022/01/31 04:54:56;;;;;;;9.77;3.38;;;;;;;6.96;100.00;99923.56;8318643;28;20484;-63
2022/01/31 04:58:57;;;;;;;12.65;3.85;;;;;;;7.10;100.00;99915.16;8319636;28;20121;-63
2022/01/31 05:02:57;;;;;;;8.50;2.80;;;;;;;7.15;100.00;99915.63;8316760;28;20045;-63
2022/01/31 05:06:58;;;;;;;10.38;3.45;;;;;;;7.24;100.00;99908.56;8318108;28;20214;-63
2022/01/31 05:10:58;;;;;;;7.20;3.00;;;;;;;7.31;100.00;99913.28;8317341;28;20406;-63
2022/01/31 05:14:59;;;;;;;19.38;4.10;;;;;;;7.38;100.00;99892.09;8300329;28;20107;-63
2022/01/31 05:18:59;;;;;;;13.57;3.75;;;;;;;7.38;100.00;99911.75;8302859;28;20035;-63
2022/01/31 05:22:59;;;;;;;12.75;3.33;;;;;;;7.38;100.00;99898.28;8318649;28;20041;-63
2022/01/31 05:27:00;;;;;;;14.50;3.60;;;;;;;7.43;100.00;99905.97;8316610;28;20113;-63
2022/01/31 05:31:00;;;;;;;14.03;3.97;;;;;;;7.37;100.00;99885.84;8317155;28;20386;-63
2022/01/31 05:35:03;;;;;;;9.73;4.28;;;;;;;7.32;100.00;99882.72;8309461;28;20283;-63
2022/01/31 05:39:04;;;;;;;12.23;4.28;;;;;;;7.39;100.00;99883.03;8311932;28;20049;-63
2022/01/31 05:43:04;;;;;;;16.92;4.60;;;;;;;7.36;100.00;99881.47;8302889;28;20053;-63
2022/01/31 05:47:05;;;;;;;12.82;3.40;;;;;;;7.49;99.42;99879.38;8295600;28;20379;-63
2022/01/31 05:51:13;;;;;;;9.68;3.03;;;;;;;7.52;98.45;99879.13;8308367;28;20508;-63
2022/01/31 05:55:14;;;;;;;13.27;3.35;;;;;;;7.58;96.00;99875.00;8320710;28;20469;-63
2022/01/31 05:59:15;;;;;;;13.75;3.30;;;;;;;7.58;96.67;99867.81;8320492;28;20033;-63
2022/01/31 06:03:16;;;;;;;11.30;2.42;;;;;;;7.64;95.35;99869.09;8320054;28;20124;-63
2022/01/31 06:07:16;;;;;;;10.65;2.28;;;;;;;7.69;93.77;99864.97;8320453;28;20037;-63
2022/01/31 06:11:17;;;;;;;8.50;2.85;;;;;;;7.70;93.66;99869.41;8314328;28;20124;-63
2022/01/31 06:15:18;;;;;;;10.75;2.85;;;;;;;7.72;92.98;99853.94;8302033;28;20421;-63
2022/01/31 06:19:19;;;;;;;15.68;2.63;;;;;;;7.71;93.05;99865.72;8304775;28;20088;-63
2022/01/31 06:23:19;;;;;;;14.07;2.80;;;;;;;7.71;92.26;99846.88;8303084;28;20332;-64
2022/01/31 06:27:19;;;;;;;13.13;2.67;;;;;;;7.80;89.96;99856.81;8308182;28;20050;-63
2022/01/31 06:31:20;;;;;;;11.13;2.22;;;;;;;7.81;89.62;99845.03;8316115;28;20042;-63
2022/01/31 06:35:20;;;;;;;11.95;2.60;;;;;;;7.79;89.79;99838.97;8324455;28;20029;-63
2022/01/31 06:39:21;;;;;;;14.20;3.17;;;;;;;7.77;90.06;99838.25;8326399;28;20064;-63
2022/01/31 06:43:22;;;;;;;8.52;2.90;;;;;;;7.68;91.29;99836.41;8325738;28;20053;-64
2022/01/31 06:47:23;;;;;;;14.27;3.17;;;;;;;7.65;90.78;99830.44;8312324;28;20048;-64
2022/01/31 06:51:23;;;;;;;13.35;2.58;;;;;;;7.62;91.07;99823.50;8301099;28;20485;-64
2022/01/31 06:55:25;;;;;;;14.38;3.42;;;;;;;7.59;90.62;99815.69;8293493;28;20444;-64
2022/01/31 06:59:25;;;;;;;13.50;3.13;;;;;;;7.55;91.34;99822.34;8292888;28;20045;-64
2022/01/31 07:03:25;;;;;;;15.68;2.83;;;;;;;7.55;90.79;99818.81;8297735;28;20486;-64
2022/01/31 07:07:27;;;;;;;11.95;2.97;;;;;;;7.39;93.06;99822.03;8304523;28;20045;-64
2022/01/31 07:11:32;;;;;;;14.65;2.65;;;;;;;7.24;95.61;99826.09;8316694;28;20082;-64
2022/01/31 07:15:32;;;;;;;20.23;4.38;;;;;;;7.10;97.62;99806.78;8315317;28;20041;-64
2022/01/31 07:19:35;;;;;;;14.88;3.78;;;;;;;6.94;98.93;99810.00;8308868;28;20140;-64
2022/01/31 07:23:51;;;;;;;21.40;5.10;;;;;;;6.92;99.95;99820.00;8307166;28;20436;-64
2022/01/31 07:27:51;;;;;;;17.10;3.38;;;;;;;6.88;100.00;99828.47;8295266;28;20073;-65
2022/01/31 07:31:52;;;;;;;18.17;3.80;;;;;;;6.77;100.00;99805.25;8283231;28;20084;-64
2022/01/31 07:35:53;;;;;;;16.92;3.45;;;;;;;6.81;100.00;99828.19;8286260;28;20783;-64
2022/01/31 07:39:54;;;;;;;14.45;2.78;;;;;;;6.78;100.00;99819.53;8314447;28;20875;-64
2022/01/31 07:43:54;;;;;;;11.35;2.20;;;;;;;6.81;100.00;99844.31;8292371;28;20403;-64
2022/01/31 07:47:55;;;;;;;16.58;2.88;;;;;;;6.89;100.00;99835.56;8303002;28;20417;-64
2022/01/31 07:51:56;;;;;;;17.95;3.35;;;;;;;6.85;99.61;99845.72;8310256;28;20045;-64
2022/01/31 07:55:59;;;;;;;17.25;2.75;;;;;;;6.79;100.00;99840.88;8305424;28;20126;-64
2022/01/31 08:00:04;;;;;;;12.32;2.00;;;;;;;6.85;98.59;99837.66;8318800;28;20040;-64
2022/01/31 08:04:04;;;;;;;;;;;;;;;6.87;98.16;99835.72;8318609;28;20041;-64
2022/01/31 08:08:05;;;;;;;16.20;2.87;;;;;;;6.90;98.17;99843.50;8297135;28;20012;-64
2022/01/31 08:12:06;;;;;;;14.68;3.40;;;;;;;6.96;97.45;99825.97;8283345;28;20285;-64
2022/01/31 08:20:11;;;;;;;13.43;3.08;;;;;;;6.98;97.95;99840.97;8309029;28;20333;-64
2022/01/31 08:24:11;;;;;;;14.93;2.65;;;;;;;6.96;97.41;99837.59;8309447;28;20048;-64
2022/01/31 08:28:12;;;;;;;9.65;2.40;;;;;;;6.97;97.41;99839.28;8311578;28;20053;-64
2022/01/31 08:32:33;;;;;;;11.20;2.70;;;;;;;6.93;97.15;99837.00;8315565;28;20041;-64
2022/01/31 08:36:34;;;;;;;13.85;1.98;;;;;;;6.87;96.98;99821.41;8313151;28;20051;-64
2022/01/31 08:40:35;;;;;;;13.02;2.10;;;;;;;6.93;96.65;99827.13;8312066;28;20132;-64
2022/01/31 08:44:35;;;;;;;9.98;1.90;;;;;;;6.94;96.78;99831.50;8314890;28;20053;-64
2022/01/31 08:48:36;;;;;;;9.48;2.03;;;;;;;6.94;96.80;99823.44;8311717;28;20041;-64
2022/01/31 08:52:37;;;;;;;9.82;2.17;;;;;;;6.94;96.89;99836.88;8315357;28;20037;-64
2022/01/31 08:56:40;;;;;;;11.43;3.05;;;;;;;6.92;97.27;99841.50;8306098;28;20148;-64
2022/01/31 09:00:41;;;;;;;15.73;2.70;;;;;;;6.93;97.52;99837.84;8315473;28;20548;-64
2022/01/31 09:04:49;;;;;;;8.60;2.70;;;;;;;6.90;97.04;99838.13;8313347;28;20413;-64
2022/01/31 09:08:49;;;;;;;12.55;2.72;;;;;;;6.85;98.00;99840.34;8312636;28;20128;-64
2022/01/31 09:12:49;;;;;;;15.02;2.15;;;;;;;6.79;98.25;99834.66;8314626;28;20037;-64
2022/01/31 09:16:50;;;;;;;10.27;2.10;;;;;;;6.76;98.51;99841.16;8314839;28;20056;-64
2022/01/31 09:20:51;;;;;;;12.77;2.20;;;;;;;6.70;98.54;99840.81;8314608;28;20449;-64
2022/01/31 09:24:53;;;;;;;9.35;1.92;;;;;;;6.66;100.00;99837.56;8312731;28;20034;-64
2022/01/31 09:28:54;;;;;;;10.65;2.55;;;;;;;6.66;100.00;99842.94;8314732;28;20451;-65
2022/01/31 09:32:57;;;;;;;14.23;2.50;;;;;;;6.64;100.00;99815.34;8312778;28;20524;-65
2022/01/31 09:36:58;;;;;;;14.80;2.60;;;;;;;6.61;100.00;99821.00;8314562;28;20134;-64
2022/01/31 09:40:59;;;;;;;12.27;2.30;;;;;;;6.53;100.00;99812.78;8310193;28;20041;-64
2022/01/31 09:49:13;;;;;;;14.90;2.80;;;;;;;6.49;100.00;99827.41;8394861;27;20385;-64
2022/01/31 09:53:13;;;;;;;16.38;3.05;;;;;;;6.54;100.00;99827.03;8391057;27;20072;-64
2022/01/31 09:57:15;;;;;;;18.45;2.92;;;;;;;6.55;100.00;99824.22;8398388;27;20040;-64
2022/01/31 10:01:18;;;;;;;15.68;2.20;;;;;;;6.52;100.00;99835.22;8344884;28;20106;-64
2022/01/31 10:05:34;;;;;;;16.38;3.10;;;;;;;6.44;100.00;99818.94;8343650;28;20044;-64
2022/01/31 10:09:34;;;;;;;13.85;2.50;;;;;;;6.44;100.00;99832.34;8356925;28;20033;-64
2022/01/31 10:18:00;;;;;;;20.27;2.55;;;;;;;6.43;100.00;99851.28;8343867;28;20573;-64
2022/01/31 10:22:05;;;;;;;31.13;3.53;;;;;;;6.45;100.00;99851.97;8354517;28;20382;-64
2022/01/31 10:26:06;;;;;;;26.70;3.67;;;;;;;6.44;100.00;99861.88;8343309;28;20321;-64
2022/01/31 10:30:12;;;;;;;22.30;3.53;;;;;;;6.44;100.00;99859.19;8343186;28;20487;-64
2022/01/31 10:34:14;;;;;;;16.83;2.63;;;;;;;6.48;100.00;99852.56;8342756;28;20033;-64
2022/01/31 10:38:19;;;;;;;21.90;3.05;;;;;;;6.53;100.00;99870.97;8327940;28;20183;-64
2022/01/31 10:55:27;;;;;;;21.30;3.35;;;;;;;6.69;100.00;99882.97;8300236;28;20405;-64
2022/01/31 10:59:37;;;;;;;19.35;3.42;;;;;;;6.70;100.00;99881.97;8310581;28;20045;-64
2022/01/31 11:03:40;;;;;;;19.95;2.83;;;;;;;6.68;100.00;99889.28;8309715;28;20404;-64
2022/01/31 11:07:40;;;;;;;23.35;3.45;;;;;;;6.63;100.00;99878.13;8311513;28;20045;-64
2022/01/31 11:11:45;;;;;;;28.38;3.75;;;;;;;6.60;100.00;99882.88;8311305;28;20042;-64
2022/01/31 11:15:45;;;;;;;25.67;2.78;;;;;;;6.63;100.00;99880.81;8333975;28;20057;-64
2022/01/31 11:19:55;;;;;;;26.98;3.60;;;;;;;6.65;100.00;99869.94;8344172;28;20038;-64
2022/01/31 11:24:01;;;;;;;16.92;3.10;;;;;;;6.67;100.00;99895.66;8342058;28;20080;-64
2022/01/31 11:28:03;;;;;;;13.27;2.47;;;;;;;6.63;100.00;99904.97;8343660;28;20041;-64
2022/01/31 11:32:04;;;;;;;23.15;3.35;;;;;;;6.59;100.00;99900.81;8340937;28;20160;-64
2022/01/31 11:36:05;;;;;;;21.55;4.53;;;;;;;6.62;100.00;99908.63;8343247;28;20033;-64
2022/01/31 11:40:09;;;;;;;28.50;3.53;;;;;;;6.67;100.00;99916.28;8343171;28;20037;-64
2022/01/31 11:44:19;;;;;;;29.77;3.53;;;;;;;6.72;100.00;99924.81;8324975;28;20373;-64
2022/01/31 11:48:24;;;;;;;25.05;4.30;;;;;;;6.75;100.00;99938.84;8325695;28;20047;-64
2022/01/31 11:52:29;;;;;;;27.27;4.00;;;;;;;6.72;100.00;99957.03;8339926;28;20042;-64
2022/01/31 11:56:29;;;;;;;30.58;4.15;;;;;;;6.76;100.00;99959.34;8319729;28;20088;-64
2022/01/31 12:00:30;;;;;;;30.38;3.97;;;;;;;6.77;100.00;99950.28;8327374;28;20041;-64
2022/01/31 12:04:32;;;;;;;34.47;4.75;;;;;;;6.79;100.00;99975.19;8330814;28;20029;-64
2022/01/31 12:08:37;;;;;;;33.00;5.25;;;;;;;6.77;100.00;99976.31;8320492;28;20047;-64
2022/01/31 12:12:48;;;;;;;33.05;4.60;;;;;;;6.62;100.00;99962.31;8318278;28;20114;-64
2022/01/31 12:17:02;;;;;;;31.67;4.05;;;;;;;6.69;100.00;99966.22;8318084;28;20056;-64
2022/01/31 12:22:15;;;;;;;26.88;4.05;;;;;;;6.63;100.00;99974.78;8320822;28;20037;-64
2022/01/31 12:25:34;;;;;;;34.15;3.90;;;;;;;6.60;100.00;99985.78;8316292;28;20049;-64
2022/01/31 12:29:43;;;;;;;27.13;3.28;;;;;;;6.51;100.00;100004.50;8317565;28;20109;-64
2022/01/31 12:33:43;;;;;;;20.40;2.75;;;;;;;6.53;100.00;100005.22;8314552;28;20046;-64
2022/01/31 12:37:53;;;;;;;25.52;3.65;;;;;;;6.52;100.00;100009.75;8319263;28;20045;-64
2022/01/31 12:42:00;;;;;;;29.30;4.35;;;;;;;6.54;100.00;100006.91;8317797;28;20080;-64
2022/01/31 12:46:03;;;;;;;25.73;3.65;;;;;;;6.52;100.00;100007.06;8319541;28;20505;-64
2022/01/31 12:50:24;;;;;;;30.90;4.50;;;;;;;6.50;100.00;100011.72;8316489;28;20447;-64
2022/01/31 12:54:25;;;;;;;31.55;4.25;;;;;;;6.49;100.00;100015.38;8308031;28;20041;-63
2022/01/31 12:58:34;;;;;;;40.33;5.10;;;;;;;6.47;100.00;100016.47;8306762;28;20052;-64
2022/01/31 13:02:47;;;;;;;27.95;4.75;;;;;;;6.44;100.00;100031.03;8300505;28;20046;-64
2022/01/31 13:06:51;;;;;;;28.67;4.00;;;;;;;6.45;100.00;100035.41;8317497;28;20448;-63
2022/01/31 13:10:53;;;;;;;32.80;4.18;;;;;;;6.48;100.00;100029.78;8317464;28;20041;-63
2022/01/31 13:14:53;;;;;;;31.85;4.53;;;;;;;6.54;100.00;100031.94;8316622;28;20560;-63
2022/01/31 13:18:55;;;;;;;32.75;4.32;;;;;;;6.51;100.00;100045.63;8317201;28;20396;-63
2022/01/31 13:22:55;;;;;;;35.97;4.40;;;;;;;6.51;100.00;100061.75;8316969;28;20734;-63
2022/01/31 13:26:58;;;;;;;40.38;5.18;;;;;;;6.48;100.00;100062.00;8317058;28;20128;-63
2022/01/31 13:31:07;;;;;;;32.08;4.38;;;;;;;6.43;100.00;100061.50;8319469;28;20045;-63
2022/01/31 13:35:28;;;;;;;31.40;5.18;;;;;;;6.43;100.00;100066.88;8319249;28;20112;-63
2022/01/31 13:39:29;;;;;;;36.83;6.15;;;;;;;6.44;100.00;100081.16;8318371;28;20041;-63
2022/01/31 13:43:34;;;;;;;29.83;3.97;;;;;;;6.43;100.00;100090.22;8318208;28;20037;-63
2022/01/31 13:47:45;;;;;;;21.75;3.70;;;;;;;6.40;100.00;100077.88;8319002;28;20040;-63
2022/01/31 13:51:48;;;;;;;34.20;5.32;;;;;;;6.38;100.00;100087.91;8317680;28;20041;-63
2022/01/31 13:55:51;;;;;;;22.40;3.50;;;;;;;6.37;100.00;100096.06;8306128;28;20534;-63
2022/01/31 13:59:52;;;;;;;20.90;3.85;;;;;;;6.41;100.00;100092.16;8304104;28;20033;-62
2022/01/31 14:03:53;;;;;;;34.67;4.47;;;;;;;6.40;100.00;100102.03;8315418;28;20403;-63
2022/01/31 14:08:13;;;;;;;35.85;4.25;;;;;;;6.35;100.00;100108.75;8318788;28;20096;-63
2022/01/31 14:12:15;;;;;;;28.48;3.90;;;;;;;6.31;100.00;100101.94;8316067;28;20416;-63
2022/01/31 14:16:19;;;;;;;28.40;4.10;;;;;;;6.36;100.00;100110.44;8302099;28;20033;-63
2022/01/31 14:20:19;;;;;;;25.83;4.78;;;;;;;6.33;100.00;100116.94;8317958;28;20392;-63
2022/01/31 14:24:27;;;;;;;25.13;3.35;;;;;;;6.35;100.00;100120.34;8318150;28;20033;-63
2022/01/31 14:28:46;;;;;;;24.23;3.33;;;;;;;6.34;100.00;100129.38;8317169;28;20496;-62
2022/01/31 14:33:07;;;;;;;25.25;4.65;;;;;;;6.34;100.00;100129.38;8316884;28;20095;-63
2022/01/31 14:37:09;;;;;;;33.83;4.50;;;;;;;6.30;100.00;100138.66;8317550;28;20068;-63
2022/01/31 14:41:20;;;;;;;32.60;4.65;;;;;;;6.30;100.00;100153.91;8304745;28;20044;-63
2022/01/31 14:49:41;;;;;;;23.52;4.00;;;;;;;6.25;100.00;100166.84;8318715;28;20495;-63
2022/01/31 14:53:53;;;;;;;29.77;4.65;;;;;;;6.18;100.00;100171.84;8309952;28;20458;-63
2022/01/31 14:57:53;;;;;;;28.13;4.65;;;;;;;6.18;100.00;100177.19;8308156;28;20033;-63
2022/01/31 15:01:54;;;;;;;26.40;3.83;;;;;;;6.19;100.00;100189.63;8316986;28;20068;-62
2022/01/31 15:05:55;;;;;;;26.73;4.47;;;;;;;6.21;100.00;100197.56;8300854;28;20038;-62
2022/01/31 15:09:55;;;;;;;24.08;4.10;;;;;;;6.20;100.00;100196.72;8301274;28;20050;-62
2022/01/31 15:13:56;;;;;;;32.95;5.50;;;;;;;6.19;100.00;100205.75;8315444;28;20045;-62
2022/01/31 15:17:59;;;;;;;29.40;5.68;;;;;;;6.17;100.00;100213.06;8314165;28;20039;-63
2022/01/31 15:21:59;;;;;;;26.25;4.65;;;;;;;6.18;100.00;100228.19;8317051;28;20041;-63
2022/01/31 15:26:01;;;;;;;29.08;5.03;;;;;;;6.18;100.00;100225.50;8317649;28;20049;-63
2022/01/31 15:30:04;;;;;;;31.30;4.57;;;;;;;6.19;100.00;100232.56;8318561;28;20073;-63
2022/01/31 15:34:06;;;;;;;40.17;4.93;;;;;;;6.16;100.00;100227.44;8307436;28;20460;-64
2022/01/31 15:38:09;;;;;;;33.50;5.20;;;;;;;6.21;100.00;100230.63;8295460;28;20125;-64
2022/01/31 15:42:10;;;;;;;33.97;4.80;;;;;;;6.23;100.00;100234.06;8312033;28;20037;-64
2022/01/31 15:46:11;;;;;;;37.10;4.82;;;;;;;6.26;100.00;100244.56;8316035;28;20049;-64
2022/01/31 15:50:11;;;;;;;43.58;6.13;;;;;;;6.25;100.00;100240.16;8305299;28;20374;-64
2022/01/31 15:54:12;;;;;;;32.03;5.75;;;;;;;6.29;100.00;100248.81;8296891;28;20049;-63
2022/01/31 15:58:15;;;;;;;45.53;5.20;;;;;;;6.32;100.00;100265.56;8311282;28;20045;-64
2022/01/31 16:02:17;;;;;;;36.80;5.57;;;;;;;6.32;100.00;100276.28;8315508;28;20044;-64
2022/01/31 16:06:17;;;;;;;44.13;5.63;;;;;;;6.34;100.00;100260.91;8319410;28;20041;-63
2022/01/31 16:10:17;;;;;;;45.92;6.30;;;;;;;6.34;100.00;100274.31;8312708;28;20405;-63
2022/01/31 16:14:20;;;;;;;43.08;7.65;;;;;;;6.36;100.00;100283.13;8308665;28;20092;-63
2022/01/31 16:18:21;;;;;;;52.22;8.50;;;;;;;6.32;100.00;100289.72;8304479;28;20382;-63
2022/01/31 16:22:22;;;;;;;42.97;6.32;;;;;;;6.31;100.00;100293.34;8308933;28;20045;-64
2022/01/31 16:26:22;;;;;;;50.88;6.53;;;;;;;6.31;100.00;100293.34;8306224;28;20061;-63
2022/01/31 16:30:23;;;;;;;45.30;6.03;;;;;;;6.31;100.00;100296.03;8309807;28;20037;-63
2022/01/31 16:34:23;;;;;;;41.25;6.07;;;;;;;6.34;100.00;100303.84;8315791;28;20045;-63
2022/01/31 16:38:24;;;;;;;53.17;7.07;;;;;;;6.34;100.00;100309.22;8304491;28;20117;-63
2022/01/31 16:42:25;;;;;;;38.30;5.80;;;;;;;6.38;100.00;100321.47;8316694;28;20548;-63
2022/01/31 16:46:26;;;;;;;46.78;5.93;;;;;;;6.38;100.00;100329.50;8299542;28;20401;-63
2022/01/31 16:50:27;;;;;;;37.90;5.53;;;;;;;6.36;100.00;100336.81;8302086;28;20564;-63
2022/01/31 16:54:27;;;;;;;32.65;5.15;;;;;;;6.39;100.00;100338.41;8298902;28;20044;-64
2022/01/31 16:58:28;;;;;;;43.60;5.90;;;;;;;6.42;100.00;100356.97;8300700;28;20061;-63
2022/01/31 17:02:28;;;;;;;32.08;3.95;;;;;;;6.44;100.00;100350.53;8298673;28;20038;-63
2022/01/31 17:06:28;;;;;;;33.28;4.63;;;;;;;6.42;100.00;100363.19;8309233;28;20044;-63
2022/01/31 17:10:29;;;;;;;33.67;4.55;;;;;;;6.38;100.00;100375.16;8301152;28;20037;-63
2022/01/31 17:14:29;;;;;;;39.35;4.53;;;;;;;6.39;100.00;100394.78;8305301;28;20413;-63
2022/01/31 17:18:30;;;;;;;30.15;4.47;;;;;;;6.27;100.00;100385.84;8303440;28;20456;-63
2022/01/31 17:22:31;;;;;;;31.67;4.45;;;;;;;6.26;100.00;100405.63;8310217;28;20456;-63
2022/01/31 17:26:32;;;;;;;30.85;4.05;;;;;;;6.28;100.00;100411.69;8318790;28;20069;-64
2022/01/31 17:30:32;;;;;;;34.17;5.80;;;;;;;6.28;100.00;100409.03;8319110;28;20095;-64
2022/01/31 17:34:34;;;;;;;27.38;4.63;;;;;;;6.29;100.00;100424.19;8316685;28;20055;-63
2022/01/31 17:38:35;;;;;;;22.45;5.30;;;;;;;6.28;100.00;100433.19;8309953;28;20400;-64
2022/01/31 17:42:36;;;;;;;22.02;5.43;;;;;;;6.35;100.00;100450.56;8304256;28;20041;-63
2022/01/31 17:46:36;;;;;;;25.75;5.57;;;;;;;6.32;100.00;100445.41;8317160;28;20424;-63
2022/01/31 17:50:40;;;;;;;19.27;4.35;;;;;;;6.38;100.00;100463.75;8308496;28;20053;-63
2022/01/31 17:54:40;;;;;;;37.25;5.53;;;;;;;6.43;100.00;100466.09;8309333;28;20528;-63
2022/01/31 17:58:40;;;;;;;31.30;6.20;;;;;;;6.39;100.00;100465.44;8304258;28;20518;-63
2022/01/31 18:02:41;;;;;;;33.72;4.90;;;;;;;6.43;100.00;100488.41;8311195;28;20049;-63
2022/01/31 18:06:42;;;;;;;26.15;5.22;;;;;;;6.37;100.00;100485.34;8304746;28;20049;-63
2022/01/31 18:10:42;;;;;;;42.45;6.20;;;;;;;6.39;100.00;100483.38;8309634;28;20622;-63
2022/01/31 18:14:42;;;;;;;27.25;5.90;;;;;;;6.44;100.00;100498.19;8313068;28;20072;-63
2022/01/31 18:18:43;;;;;;;44.58;6.90;;;;;;;6.48;100.00;100513.09;8313935;28;20417;-63
2022/01/31 18:22:44;;;;;;;41.17;6.35;;;;;;;6.54;100.00;100518.00;8314842;28;20136;-63
2022/01/31 18:26:45;;;;;;;46.50;7.60;;;;;;;6.56;100.00;100540.22;8306707;28;20041;-63
2022/01/31 18:30:49;;;;;;;33.20;5.88;;;;;;;6.58;100.00;100548.16;8309397;28;20492;-64
2022/01/31 18:34:49;;;;;;;37.95;7.05;;;;;;;6.64;100.00;100567.38;8303228;28;20080;-64
2022/01/31 18:38:50;;;;;;;29.02;5.65;;;;;;;6.68;100.00;100568.84;8305981;28;20037;-63
2022/01/31 18:42:50;;;;;;;40.92;5.13;;;;;;;6.71;100.00;100573.97;8300852;28;20320;-64
2022/01/31 18:46:50;;;;;;;47.40;6.43;;;;;;;6.70;100.00;100587.53;8301497;28;20060;-64
2022/01/31 18:50:55;;;;;;;39.28;5.53;;;;;;;6.68;100.00;100590.34;8304392;28;20111;-63
2022/01/31 18:54:55;;;;;;;;;;;;;;;6.67;100.00;100603.88;8298104;28;20064;-64
2022/01/31 18:58:56;;;;;;;53.58;6.47;;;;;;;6.66;100.00;100605.72;8305528;28;19921;-63
2022/01/31 19:02:58;;;;;;;49.88;6.88;;;;;;;6.64;100.00;100626.47;8306604;28;20061;-63
2022/01/31 19:06:58;;;;;;;48.85;7.00;;;;;;;6.64;100.00;100621.09;8299403;28;20520;-64
2022/01/31 19:11:08;;;;;;;47.25;6.13;;;;;;;6.63;100.00;100640.88;8304533;28;20398;-63
2022/01/31 19:19:21;;;;;;;48.53;6.25;;;;;;;6.65;100.00;100633.53;8276208;27;20939;-62